Terminal Aerodrome Forecast
Issued by NWS Atlanta, GA

Home | Current Version | Previous Version | Text Only | Print | Product List | Glossary On
Versions: 1 2 3 4 5 6 7 8 9 10 11 12 13 14 15 16 17 18 19 20 21 22 23 24 25 26 27 28 29 30 31 32
000
FTAK31 PAJN 011500 AAA
TAFAHN
TAF AMD
PAHN 011504Z 0115/0212 31011KT P6SM BKN150
     FM011800 31013G18KT P6SM SKC
     FM012100 31015G21KT P6SM SKC
     FM020300 31011KT P6SM SKC
      AMD LTD TO CLD VIS AND WIND=

USA.gov is the U.S. government's official web portal to all federal, state and local government web resources and services.